< Typhoon 201619 2016 Season Typhoon 201621 >
Typhoon 201620 (SONGDA)
General InformationDetailed Track InformationTrack Information on Google MapsForecast History on Google MapsAccess Analytics MapList of All Images || NewsDisaster Info.WeblogTrackbackTyphoon FrontTwiphoonTyphoon Now!Typhoon ImaginationDisaster Info. XMLResourceGoogle EarthGE AnimationAtom FeedGeoJSON
Detalied Best Track Wind (Time Zone = UTC)
Year Month Day Hour Lat. Long. Wind (kt) Gust (kt) Direc. of Major Storm Axis Radius of Major Storm Axis (nm) Radius of Minor Storm Axis (nm) Direc. of Major Gale Axis Radius of Major Gale Axis (nm) Radius of Minor Gale Axis (nm) Image
2016 10 3 18 16.4 180.5 0 0 - - - - - - Image
2016 10 4 00 16.5 178.8 0 0 - - - - - - Image
2016 10 4 06 16.4 177.6 0 0 - - - - - - Image
2016 10 4 12 16.6 176.7 0 0 - - - - - - Image
2016 10 4 18 17.3 175.9 0 0 - - - - - - Image
2016 10 5 00 18.0 174.7 0 0 - - - - - - Image
2016 10 5 06 18.1 173.1 0 0 - - - - - - Image
2016 10 5 12 18.0 171.5 0 0 - - - - - - Image
2016 10 5 18 17.9 170.3 0 0 - - - - - - Image
2016 10 6 00 17.9 168.7 0 0 - - - - - - Image
2016 10 6 06 18.0 167.0 0 0 - - - - - - Image
2016 10 6 12 18.0 165.5 0 0 - - - - - - Image
2016 10 6 18 18.1 164.4 0 0 - - - - - - Image
2016 10 7 00 18.2 163.4 0 0 - - - - - - Image
2016 10 7 06 18.6 161.8 0 0 - - - - - - Image
2016 10 7 12 18.9 160.4 0 0 - - - - - - Image
2016 10 7 18 19.2 158.7 0 0 - - - - - - Image
2016 10 8 00 19.3 157.3 0 0 - - - - - - Image
2016 10 8 06 19.5 155.8 0 0 - - - - - - Image
2016 10 8 12 19.9 154.4 35 0 - - - symmetric 90 90 Image
2016 10 8 18 20.6 152.7 35 0 - - - symmetric 90 90 Image
2016 10 9 00 21.2 151.3 35 0 - - - symmetric 90 90 Image
2016 10 9 06 22.1 150.0 40 0 - - - symmetric 90 90 Image
2016 10 9 12 23.2 148.5 45 0 - - - symmetric 90 90 Image
2016 10 9 18 24.0 147.3 55 0 symmetric 40 40 symmetric 120 120 Image
2016 10 10 00 24.7 146.4 65 0 symmetric 40 40 symmetric 120 120 Image
2016 10 10 06 25.5 145.9 80 0 symmetric 40 40 symmetric 150 150 Image
2016 10 10 12 26.3 145.8 90 0 symmetric 60 60 NE 180 150 Image
2016 10 10 18 27.2 145.8 95 0 symmetric 60 60 NE 180 150 Image
2016 10 11 00 27.8 146.0 90 0 symmetric 60 60 NE 180 150 Image
2016 10 11 06 28.5 146.7 90 0 symmetric 60 60 NE 150 120 Image
2016 10 11 12 29.2 147.5 95 0 symmetric 60 60 NE 150 120 Image
2016 10 11 18 30.3 148.9 100 0 symmetric 60 60 NE 150 120 Image
2016 10 12 00 31.3 151.0 100 0 symmetric 60 60 NE 150 120 Image
2016 10 12 06 32.6 153.7 90 0 symmetric 50 50 SE 130 90 Image
2016 10 12 12 33.9 156.8 85 0 symmetric 50 50 SE 130 90 Image
2016 10 12 18 35.8 161.1 75 0 symmetric 50 50 SE 150 90 Image
2016 10 13 00 38.1 166.3 65 0 symmetric 50 50 SE 180 120 Image
2016 10 13 06 40.3 171.1 0 0 - - - - - - Image
2016 10 13 12 41.7 176.5 0 0 - - - - - - Image
2016 10 13 18 42.1 183.6 0 0 - - - - - - Image
Japan Meteorological Agency Best Track Data | Correction Date : 2016-11-22
< Typhoon 201619 2016 Season Typhoon 201621 >

Help